Norton, Kansas
Current Conditions -  °F | °C
As of 9:53 PM on Friday 19 Dec 2014 (Local Time) from KHLC Reporting Station
Clear Clear  
Wind Chill: 29°   Ceiling: Unl
Heat Index: 35°   Visibility: 10mi
Dew Point: 27°   Wind: 7mph
Humidity: 72%   Direction: 260°W
Pressure: 30.07"   Gusts: NA
Location:  39.83°N, 99.89°W
Report Text: KHLC 200353Z AUTO 26006KT 10SM CLR 02/M03 A3007 RMK AO2 SLP200 T00171028
Loading
Personal Weather Stations






























Interactive Weather Map New forecast layout! Learn more

10-Day Weather Forecast

Advertisements
Track Severe Weather on mobile